createdAt,value
2023-04-28T00:00:56.121Z,94771.88
2023-04-28T00:03:24.202Z,94775.41
2023-04-28T00:05:54.575Z,94770.81
2023-04-28T00:08:27.109Z,94777.06
2023-04-28T00:10:54.981Z,94776.94
2023-04-28T00:13:22.920Z,94777.19
2023-04-28T00:15:53.058Z,94773.25
2023-04-28T00:18:21.632Z,94762.94
2023-04-28T00:20:49.864Z,94776.81
2023-04-28T00:23:17.862Z,94775.97
2023-04-28T00:25:45.880Z,94770.94
2023-04-28T00:28:18.356Z,94782.88
2023-04-28T00:30:56.403Z,94780.31
2023-04-28T00:33:24.326Z,94777.19
2023-04-28T00:36:00.493Z,94779.63
2023-04-28T00:38:28.443Z,94786.28
2023-04-28T00:40:56.419Z,94791.69
2023-04-28T00:43:24.482Z,94783.53
2023-04-28T00:45:53.015Z,94786.66
2023-04-28T00:48:23.806Z,94785.47
2023-04-28T00:50:52.647Z,94785.84
2023-04-28T00:53:20.761Z,94788.16
2023-04-28T00:55:50.328Z,94795.03
2023-04-28T00:58:18.235Z,94794.34
2023-04-28T01:00:46.082Z,94791.78
2023-04-28T01:03:14.144Z,94786.47
2023-04-28T01:05:43.644Z,94788.38
2023-04-28T01:08:11.662Z,94778.97
2023-04-28T01:10:45.139Z,94798.91
2023-04-28T01:13:13.706Z,94792.91
2023-04-28T01:15:41.904Z,94797.25
2023-04-28T01:18:09.942Z,94804.06
2023-04-28T01:20:37.980Z,94800.53
2023-04-28T01:23:07.262Z,94792.91
2023-04-28T01:25:36.551Z,94809.03
2023-04-28T01:28:04.533Z,94805.78
2023-04-28T01:30:32.396Z,94799.13
2023-04-28T01:33:00.970Z,94802.38
2023-04-28T01:35:29.077Z,94806.56
2023-04-28T01:37:57.097Z,94808.06
2023-04-28T01:40:25.152Z,94796.41
2023-04-28T01:42:54.491Z,94800.41
2023-04-28T01:45:22.483Z,94804.06
2023-04-28T01:47:50.704Z,94803.50
2023-04-28T01:50:18.910Z,94795.59
2023-04-28T01:52:46.789Z,94808.59
2023-04-28T01:55:14.783Z,94808.47
2023-04-28T01:57:42.640Z,94799.38
2023-04-28T02:00:12.834Z,94803.44
2023-04-28T02:02:41.046Z,94809.81
2023-04-28T02:05:09.671Z,94798.53
2023-04-28T02:07:37.529Z,94804.03
2023-04-28T02:10:06.131Z,94809.31
2023-04-28T02:12:33.992Z,94812.16
2023-04-28T02:15:02.147Z,94811.47
2023-04-28T02:17:32.608Z,94813.25
2023-04-28T02:20:00.632Z,94815.09
2023-04-28T02:22:28.585Z,94791.22
2023-04-28T02:24:56.493Z,94813.59
2023-04-28T02:27:24.424Z,94811.31
2023-04-28T02:29:52.671Z,94815.25
2023-04-28T02:32:20.682Z,94811.97
2023-04-28T02:34:56.593Z,94821.88
2023-04-28T02:37:24.832Z,94813.97
2023-04-28T02:39:53.465Z,94830.19
2023-04-28T02:42:21.383Z,94820.31
2023-04-28T02:44:49.294Z,94826.91
2023-04-28T02:47:17.120Z,94834.50
2023-04-28T02:49:45.041Z,94830.03
2023-04-28T02:52:14.385Z,94821.16
2023-04-28T02:54:42.314Z,94834.69
2023-04-28T02:57:10.246Z,94824.16
2023-04-28T02:59:38.189Z,94835.88
2023-04-28T03:02:06.186Z,94843.34
2023-04-28T03:04:34.466Z,94844.09
2023-04-28T03:07:02.677Z,94842.22
2023-04-28T03:09:32.027Z,94839.13
2023-04-28T03:11:59.848Z,94840.19
2023-04-28T03:14:27.763Z,94837.03
2023-04-28T03:16:56.413Z,94843.03
2023-04-28T03:19:24.779Z,94844.78
2023-04-28T03:21:52.669Z,94847.69
2023-04-28T03:24:20.532Z,94849.00
2023-04-28T03:26:49.896Z,94856.41
2023-04-28T03:29:17.964Z,94859.41
2023-04-28T03:31:45.950Z,94873.41
2023-04-28T03:34:14.541Z,94874.22
2023-04-28T03:36:42.878Z,94882.06
2023-04-28T03:39:10.882Z,94886.50
2023-04-28T03:41:38.853Z,94888.16
2023-04-28T03:44:08.219Z,94893.88
2023-04-28T03:46:36.166Z,94897.38
2023-04-28T03:49:04.149Z,94888.03
2023-04-28T03:51:33.069Z,94898.44
2023-04-28T03:54:01.052Z,94884.84
2023-04-28T03:56:28.914Z,94901.28
2023-04-28T03:59:11.780Z,94909.69
2023-04-28T04:01:41.161Z,94911.81
2023-04-28T04:04:09.298Z,94912.75
2023-04-28T04:06:37.483Z,94920.91
2023-04-28T04:09:05.733Z,94921.47
2023-04-28T04:11:33.645Z,94909.69
2023-04-28T04:14:01.529Z,94913.38
2023-04-28T04:16:29.492Z,94917.34
2023-04-28T04:18:58.897Z,94924.69
2023-04-28T04:21:27.993Z,94929.00
2023-04-28T04:23:56.002Z,94934.28
2023-04-28T04:26:24.102Z,94933.34
2023-04-28T04:28:52.117Z,94939.56
2023-04-28T04:31:20.742Z,94929.41
2023-04-28T04:33:48.769Z,94944.44
2023-04-28T04:36:18.082Z,94941.63
2023-04-28T04:38:46.000Z,94941.88
2023-04-28T04:41:14.005Z,94931.28
2023-04-28T04:43:42.017Z,94946.78
2023-04-28T04:46:09.940Z,94945.13
2023-04-28T04:48:37.801Z,94941.56
2023-04-28T04:51:06.068Z,94949.50
2023-04-28T04:53:35.341Z,94956.00
2023-04-28T04:56:03.491Z,94957.94
2023-04-28T04:58:31.623Z,94932.84
2023-04-28T05:00:59.647Z,94957.44
2023-04-28T05:03:27.958Z,94965.84
2023-04-28T05:05:55.921Z,94964.16
2023-04-28T05:08:23.865Z,94964.19
2023-04-28T05:10:53.134Z,94973.25
2023-04-28T05:13:21.206Z,94966.84
2023-04-28T05:15:49.150Z,94975.97
2023-04-28T05:18:17.276Z,94971.63
2023-04-28T05:20:45.231Z,94978.72
2023-04-28T05:23:13.796Z,94968.84
2023-04-28T05:25:41.841Z,94977.56
2023-04-28T05:28:11.498Z,94972.84
2023-04-28T05:30:39.406Z,94972.75
2023-04-28T05:33:07.325Z,94972.09
2023-04-28T05:35:35.355Z,94960.72
2023-04-28T05:38:03.336Z,94969.00
2023-04-28T05:40:31.336Z,94963.56
2023-04-28T05:42:59.340Z,94958.84
2023-04-28T05:45:28.689Z,94958.47
2023-04-28T05:47:56.860Z,94960.00
2023-04-28T05:50:25.106Z,94968.00
2023-04-28T05:52:54.628Z,94959.88
2023-04-28T05:55:22.610Z,94958.69
2023-04-28T05:57:53.462Z,94974.44
2023-04-28T06:00:22.085Z,94964.09
2023-04-28T06:02:51.809Z,94976.06
2023-04-28T06:05:20.351Z,94968.19
2023-04-28T06:07:50.180Z,94965.75
2023-04-28T06:10:18.457Z,94962.88
2023-04-28T06:12:46.618Z,94969.84
2023-04-28T06:15:15.718Z,94960.78
2023-04-28T06:17:46.361Z,94975.72
2023-04-28T06:20:16.617Z,94969.94
2023-04-28T06:22:44.476Z,94968.63
2023-04-28T06:25:13.589Z,94971.50
2023-04-28T06:27:41.508Z,94966.84
2023-04-28T06:30:10.393Z,94961.03
2023-04-28T06:32:38.639Z,94970.78
2023-04-28T06:35:07.568Z,94967.41
2023-04-28T06:37:37.016Z,94969.84
2023-04-28T06:40:05.516Z,94957.06
2023-04-28T06:42:33.945Z,94962.50
2023-04-28T06:45:03.304Z,94958.66
2023-04-28T06:47:31.363Z,94960.94
2023-04-28T06:49:59.281Z,94967.81
2023-04-28T06:52:38.503Z,94951.94
2023-04-28T06:55:10.474Z,94964.00
2023-04-28T06:57:38.995Z,94955.41
2023-04-28T07:00:08.247Z,94968.47
2023-04-28T07:02:37.020Z,94970.81
2023-04-28T07:05:05.659Z,94970.56
2023-04-28T07:07:33.785Z,94963.50
2023-04-28T07:10:02.271Z,94954.63
2023-04-28T07:12:31.512Z,94966.19
2023-04-28T07:14:59.423Z,94958.19
2023-04-28T07:17:27.425Z,94957.91
2023-04-28T07:19:55.621Z,94957.88
2023-04-28T07:22:23.734Z,94951.25
2023-04-28T07:24:51.654Z,94959.19
2023-04-28T07:27:19.630Z,94959.16
2023-04-28T07:29:49.479Z,94945.78
2023-04-28T07:32:17.666Z,94948.47
2023-04-28T07:34:45.831Z,94953.28
2023-04-28T07:37:13.778Z,94955.63
2023-04-28T07:39:42.048Z,94934.06
2023-04-28T07:42:10.198Z,94967.56
2023-04-28T07:44:38.111Z,94950.25
2023-04-28T07:47:07.516Z,94951.56
2023-04-28T07:49:35.680Z,94954.00
2023-04-28T07:52:03.552Z,94949.34
2023-04-28T07:54:31.523Z,94942.03
2023-04-28T07:56:59.651Z,94945.50
2023-04-28T07:59:27.881Z,94934.28
2023-04-28T08:01:55.904Z,94942.72
2023-04-28T08:04:26.059Z,94938.03
2023-04-28T08:06:54.612Z,94951.03
2023-04-28T08:09:22.894Z,94941.59
2023-04-28T08:11:50.841Z,94935.56
2023-04-28T08:14:18.908Z,94939.34
2023-04-28T08:16:47.440Z,94930.16
2023-04-28T08:19:15.459Z,94934.41
2023-04-28T08:21:45.420Z,94934.28
2023-04-28T08:24:13.375Z,94927.28
2023-04-28T08:26:41.712Z,94935.75
2023-04-28T08:29:09.657Z,94927.97
2023-04-28T08:31:38.009Z,94933.16
2023-04-28T08:34:08.047Z,94922.97
2023-04-28T08:36:35.917Z,94926.50
2023-04-28T08:39:08.547Z,94931.41
2023-04-28T08:41:40.150Z,94931.09
2023-04-28T08:44:09.959Z,94928.97
2023-04-28T08:46:42.018Z,94929.28
2023-04-28T08:49:15.740Z,94929.47
2023-04-28T08:51:47.839Z,94916.13
2023-04-28T08:54:26.584Z,94921.81
2023-04-28T08:56:57.049Z,94919.88
2023-04-28T08:59:25.500Z,94917.09
2023-04-28T09:01:53.534Z,94913.22
2023-04-28T09:04:22.324Z,94917.69
2023-04-28T09:06:50.584Z,94906.34
2023-04-28T09:09:25.083Z,94910.53
2023-04-28T09:11:58.632Z,94909.81
2023-04-28T09:14:27.318Z,94899.03
2023-04-28T09:16:55.569Z,94863.94
2023-04-28T09:19:23.754Z,94891.81
2023-04-28T09:21:54.160Z,94888.03
2023-04-28T09:24:31.015Z,94881.31
2023-04-28T09:26:59.608Z,94870.06
2023-04-28T09:29:27.599Z,94888.81
2023-04-28T09:31:56.248Z,94889.06
2023-04-28T09:34:24.175Z,94889.44
2023-04-28T09:36:52.174Z,94872.41
2023-04-28T09:39:32.272Z,94879.38
2023-04-28T09:42:03.530Z,94881.53
2023-04-28T09:44:31.556Z,94878.94
2023-04-28T09:46:59.490Z,94872.13
2023-04-28T09:49:27.429Z,94872.97
2023-04-28T09:51:55.612Z,94862.09
2023-04-28T09:54:25.504Z,94854.56
2023-04-28T09:56:56.054Z,94859.38
2023-04-28T09:59:24.273Z,94852.41
2023-04-28T10:01:52.835Z,94848.00
2023-04-28T10:04:22.422Z,94854.19
2023-04-28T10:06:51.016Z,94840.16
2023-04-28T10:09:26.576Z,94827.22
2023-04-28T10:11:55.924Z,94840.31
2023-04-28T10:14:25.592Z,94846.09
2023-04-28T10:16:54.923Z,94824.75
2023-04-28T10:19:22.845Z,94840.66
2023-04-28T10:22:02.562Z,94834.59
2023-04-28T10:24:31.998Z,94836.50
2023-04-28T10:27:08.444Z,94840.31
2023-04-28T10:29:37.635Z,94804.56
2023-04-28T10:32:23.722Z,94836.59
2023-04-28T10:34:51.818Z,94823.19
2023-04-28T10:37:20.404Z,94835.38
2023-04-28T10:40:26.039Z,94812.16
2023-04-28T10:42:56.586Z,94810.66
2023-04-28T10:46:02.642Z,94812.22
2023-04-28T10:49:06.933Z,94797.28
2023-04-28T10:51:36.230Z,94782.66
2023-04-28T10:54:17.961Z,94802.72
2023-04-28T10:57:23.024Z,94792.56
2023-04-28T10:59:52.987Z,94789.38
2023-04-28T11:02:44.185Z,94790.00
2023-04-28T11:05:18.885Z,94779.31
2023-04-28T11:08:30.318Z,94781.81
2023-04-28T11:11:17.800Z,94781.56
2023-04-28T11:13:47.846Z,94778.72
2023-04-28T11:16:19.093Z,94782.78
2023-04-28T11:18:55.500Z,94774.53
2023-04-28T11:21:25.964Z,94777.56
2023-04-28T11:23:54.183Z,94759.84
2023-04-28T11:26:23.793Z,94764.56
2023-04-28T11:28:54.515Z,94761.44
2023-04-28T11:31:25.444Z,94770.97
2023-04-28T11:34:00.693Z,94757.75
2023-04-28T11:36:31.943Z,94760.34
2023-04-28T11:39:00.596Z,94756.38
2023-04-28T11:41:28.699Z,94748.53
2023-04-28T11:43:56.669Z,94752.53
2023-04-28T11:46:26.785Z,94740.78
2023-04-28T11:49:05.874Z,94743.78
2023-04-28T11:51:38.686Z,94738.06
2023-04-28T11:54:11.408Z,94735.78
2023-04-28T11:56:40.312Z,94748.59
2023-04-28T11:59:10.681Z,94748.53
2023-04-28T12:01:48.727Z,94738.25
2023-04-28T12:04:27.799Z,94733.59
2023-04-28T12:07:03.755Z,94733.75
2023-04-28T12:09:32.100Z,94726.38
2023-04-28T12:12:03.059Z,94716.06
2023-04-28T12:14:32.186Z,94718.31
2023-04-28T12:17:01.648Z,94720.72
2023-04-28T12:19:29.548Z,94712.75
2023-04-28T12:22:02.723Z,94700.66
2023-04-28T12:24:30.798Z,94702.75
2023-04-28T12:27:17.200Z,94703.16
2023-04-28T12:29:46.698Z,94694.47
2023-04-28T12:32:17.400Z,94703.56
2023-04-28T12:34:46.919Z,94691.59
2023-04-28T12:37:15.037Z,94701.78
2023-04-28T12:39:43.692Z,94697.69
2023-04-28T12:42:11.827Z,94687.16
2023-04-28T12:44:40.909Z,94696.78
2023-04-28T12:47:11.179Z,94685.66
2023-04-28T12:49:41.579Z,94697.00
2023-04-28T12:52:09.716Z,94692.75
2023-04-28T12:54:38.017Z,94679.00
2023-04-28T12:57:06.189Z,94678.09
2023-04-28T12:59:34.506Z,94673.38
2023-04-28T13:02:02.845Z,94661.44
2023-04-28T13:04:31.441Z,94661.91
2023-04-28T13:07:01.197Z,94667.22
2023-04-28T13:09:29.650Z,94652.13
2023-04-28T13:11:57.534Z,94658.84
2023-04-28T13:14:27.979Z,94661.31
2023-04-28T13:16:56.122Z,94660.75
2023-04-28T13:19:24.357Z,94655.81
2023-04-28T13:21:52.283Z,94655.66
2023-04-28T13:24:21.633Z,94646.91
2023-04-28T13:26:49.695Z,94651.78
2023-04-28T13:29:18.355Z,94651.81
2023-04-28T13:31:46.496Z,94654.06
2023-04-28T13:34:16.362Z,94662.41
2023-04-28T13:36:44.821Z,94671.25
2023-04-28T13:39:14.785Z,94660.38
2023-04-28T13:41:44.286Z,94645.25
2023-04-28T13:44:12.281Z,94655.84
2023-04-28T13:46:40.351Z,94648.59
2023-04-28T13:49:08.979Z,94638.13
2023-04-28T13:51:37.054Z,94640.72
2023-04-28T13:54:08.250Z,94641.13
2023-04-28T13:56:37.613Z,94640.84
2023-04-28T13:59:07.378Z,94641.47
2023-04-28T14:01:35.414Z,94618.44
2023-04-28T14:04:03.562Z,94629.13
2023-04-28T14:06:33.628Z,94626.53
2023-04-28T14:09:03.602Z,94617.91
2023-04-28T14:11:31.584Z,94617.38
2023-04-28T14:13:59.502Z,94626.72
2023-04-28T14:16:29.114Z,94640.16
2023-04-28T14:18:57.097Z,94625.81
2023-04-28T14:21:24.927Z,94626.63
2023-04-28T14:23:52.842Z,94614.19
2023-04-28T14:26:21.131Z,94615.50
2023-04-28T14:28:49.095Z,94614.38
2023-04-28T14:31:18.010Z,94625.84
2023-04-28T14:33:47.677Z,94623.06
2023-04-28T14:36:15.624Z,94623.38
2023-04-28T14:38:43.762Z,94600.78
2023-04-28T14:41:11.662Z,94606.94
2023-04-28T14:43:39.527Z,94592.75
2023-04-28T14:46:08.015Z,94599.81
2023-04-28T14:48:36.368Z,94600.47
2023-04-28T14:51:05.871Z,94594.13
2023-04-28T14:53:33.895Z,94597.25
2023-04-28T14:56:17.274Z,94602.63
2023-04-28T14:58:46.769Z,94599.41
2023-04-28T15:01:14.695Z,94592.78
2023-04-28T15:03:42.759Z,94582.13
2023-04-28T15:06:13.393Z,94603.28
2023-04-28T15:08:41.493Z,94594.88
2023-04-28T15:11:09.668Z,94600.59
2023-04-28T15:13:37.742Z,94601.41
2023-04-28T15:16:06.342Z,94598.66
2023-04-28T15:18:34.354Z,94592.19
2023-04-28T15:21:02.919Z,94593.84
2023-04-28T15:23:32.270Z,94599.41
2023-04-28T15:26:00.571Z,94597.72
2023-04-28T15:28:28.532Z,94594.09
2023-04-28T15:30:57.018Z,94595.47
2023-04-28T15:33:24.900Z,94587.25
2023-04-28T15:35:52.833Z,94586.78
2023-04-28T15:38:20.742Z,94582.34
2023-04-28T15:40:50.073Z,94589.81
2023-04-28T15:43:18.405Z,94582.06
2023-04-28T15:45:47.593Z,94582.84
2023-04-28T15:48:16.381Z,94579.19
2023-04-28T15:50:44.841Z,94582.56
2023-04-28T15:53:12.720Z,94584.78
2023-04-28T15:55:40.648Z,94589.88
2023-04-28T15:58:10.896Z,94581.34
2023-04-28T16:00:40.683Z,94580.22
2023-04-28T16:03:08.830Z,94571.72
2023-04-28T16:05:37.097Z,94582.63
2023-04-28T16:08:05.159Z,94585.38
2023-04-28T16:10:33.207Z,94583.31
2023-04-28T16:13:01.244Z,94573.44
2023-04-28T16:15:34.398Z,94582.88
2023-04-28T16:18:02.575Z,94573.78
2023-04-28T16:20:42.013Z,94579.22
2023-04-28T16:23:13.982Z,94580.91
2023-04-28T16:25:42.889Z,94578.25
2023-04-28T16:28:10.850Z,94589.66
2023-04-28T16:30:40.548Z,94567.88
2023-04-28T16:33:13.841Z,94588.06
2023-04-28T16:35:42.090Z,94593.59
2023-04-28T16:38:11.789Z,94587.81
2023-04-28T16:40:39.709Z,94595.94
2023-04-28T16:43:07.725Z,94582.84
2023-04-28T16:45:35.918Z,94586.03
2023-04-28T16:48:05.311Z,94576.28
2023-04-28T16:50:34.113Z,94586.00
2023-04-28T16:53:02.086Z,94591.72
2023-04-28T16:55:30.296Z,94587.28
2023-04-28T16:57:58.280Z,94592.19
2023-04-28T17:00:26.281Z,94598.28
2023-04-28T17:02:54.398Z,94600.94
2023-04-28T17:05:23.813Z,94609.03
2023-04-28T17:07:51.996Z,94601.41
2023-04-28T17:10:20.016Z,94609.28
2023-04-28T17:12:47.950Z,94610.25
2023-04-28T17:15:17.427Z,94607.44
2023-04-28T17:17:45.849Z,94620.72
2023-04-28T17:20:16.874Z,94611.69
2023-04-28T17:22:46.246Z,94621.13
2023-04-28T17:25:14.485Z,94614.22
2023-04-28T17:27:42.418Z,94622.28
2023-04-28T17:30:12.102Z,94626.50
2023-04-28T17:32:40.101Z,94617.38
2023-04-28T17:35:09.185Z,94625.34
2023-04-28T17:37:37.204Z,94621.72
2023-04-28T17:40:07.998Z,94625.84
2023-04-28T17:42:35.977Z,94631.88
2023-04-28T17:45:04.656Z,94639.50
2023-04-28T17:47:34.285Z,94638.06
2023-04-28T17:50:02.739Z,94640.59
2023-04-28T17:52:30.840Z,94645.78
2023-04-28T17:54:58.736Z,94645.50
2023-04-28T17:57:28.068Z,94653.03
2023-04-28T17:59:55.965Z,94651.97
2023-04-28T18:02:23.852Z,94657.44
2023-04-28T18:04:52.153Z,94662.38
2023-04-28T18:07:20.430Z,94674.19
2023-04-28T18:09:48.377Z,94673.34
2023-04-28T18:12:16.315Z,94678.31
2023-04-28T18:14:45.681Z,94685.47
2023-04-28T18:17:13.597Z,94687.31
2023-04-28T18:19:42.143Z,94684.03
2023-04-28T18:22:10.067Z,94689.00
2023-04-28T18:24:37.972Z,94691.91
2023-04-28T18:27:05.864Z,94679.59
2023-04-28T18:29:33.890Z,94694.75
2023-04-28T18:32:03.521Z,94694.81
2023-04-28T18:34:31.546Z,94699.06
2023-04-28T18:37:01.887Z,94702.84
2023-04-28T18:39:30.057Z,94700.00
2023-04-28T18:41:58.712Z,94694.25
2023-04-28T18:44:26.678Z,94696.00
2023-04-28T18:46:56.655Z,94700.38
2023-04-28T18:49:30.346Z,94713.94
2023-04-28T18:52:01.323Z,94704.81
2023-04-28T18:54:31.200Z,94695.63
2023-04-28T18:56:59.879Z,94702.13
2023-04-28T18:59:28.192Z,94713.00
2023-04-28T19:01:58.599Z,94701.84
2023-04-28T19:04:28.465Z,94719.38
2023-04-28T19:06:56.690Z,94722.75
2023-04-28T19:09:24.691Z,94701.50
2023-04-28T19:11:53.254Z,94713.06
2023-04-28T19:14:21.245Z,94714.22
2023-04-28T19:16:49.654Z,94712.47
2023-04-28T19:19:17.902Z,94709.78
2023-04-28T19:21:47.584Z,94708.34
2023-04-28T19:24:15.517Z,94703.50
2023-04-28T19:26:48.239Z,94710.31
2023-04-28T19:29:17.400Z,94703.66
2023-04-28T19:31:45.835Z,94709.41
2023-04-28T19:34:14.113Z,94716.06
2023-04-28T19:36:42.170Z,94711.25
2023-04-28T19:39:11.442Z,94714.06
2023-04-28T19:41:39.416Z,94706.56
2023-04-28T19:44:07.426Z,94704.44
2023-04-28T19:46:35.933Z,94704.44
2023-04-28T19:49:03.917Z,94705.50
2023-04-28T19:51:32.584Z,94705.97
2023-04-28T19:54:00.477Z,94699.78
2023-04-28T19:56:30.328Z,94701.63
2023-04-28T19:58:58.775Z,94690.94
2023-04-28T20:01:26.820Z,94698.53
2023-04-28T20:03:55.473Z,94696.56
2023-04-28T20:06:23.611Z,94702.53
2023-04-28T20:08:51.679Z,94697.88
2023-04-28T20:11:19.662Z,94690.34
2023-04-28T20:13:51.865Z,94701.66
2023-04-28T20:16:20.504Z,94691.19
2023-04-28T20:18:48.747Z,94693.50
2023-04-28T20:21:16.697Z,94692.19
2023-04-28T20:23:44.733Z,94691.84
2023-04-28T20:26:15.178Z,94689.06
2023-04-28T20:28:44.582Z,94685.78
2023-04-28T20:31:13.919Z,94690.25
2023-04-28T20:33:41.816Z,94693.06
2023-04-28T20:36:10.250Z,94688.25
2023-04-28T20:38:38.119Z,94687.44
2023-04-28T20:41:07.762Z,94685.34
2023-04-28T20:43:35.690Z,94680.75
2023-04-28T20:46:03.701Z,94683.34
2023-04-28T20:48:34.253Z,94668.56
2023-04-28T20:51:03.653Z,94667.44
2023-04-28T20:53:33.109Z,94673.22
2023-04-28T20:56:01.426Z,94676.16
2023-04-28T20:58:30.952Z,94672.16
2023-04-28T21:00:59.221Z,94674.91
2023-04-28T21:03:27.282Z,94679.47
2023-04-28T21:05:56.791Z,94675.47
2023-04-28T21:08:24.706Z,94672.72
2023-04-28T21:10:52.637Z,94678.25
2023-04-28T21:13:20.577Z,94680.84
2023-04-28T21:15:48.538Z,94677.28
2023-04-28T21:18:16.432Z,94678.72
2023-04-28T21:20:44.332Z,94678.53
2023-04-28T21:23:13.566Z,94680.03
2023-04-28T21:25:41.431Z,94679.25
2023-04-28T21:28:09.343Z,94674.06
2023-04-28T21:30:37.204Z,94673.13
2023-04-28T21:33:05.335Z,94673.63
2023-04-28T21:35:33.303Z,94682.38
2023-04-28T21:38:01.308Z,94679.97
2023-04-28T21:40:30.624Z,94669.41
2023-04-28T21:42:58.468Z,94671.84
2023-04-28T21:45:26.604Z,94671.59
2023-04-28T21:47:54.528Z,94666.25
2023-04-28T21:50:22.658Z,94667.56
2023-04-28T21:52:50.581Z,94662.22
2023-04-28T21:55:18.735Z,94662.72
2023-04-28T21:57:48.033Z,94661.09
2023-04-28T22:00:16.751Z,94649.91
2023-04-28T22:02:44.815Z,94662.22
2023-04-28T22:05:13.150Z,94664.16
2023-04-28T22:07:41.023Z,94663.03
2023-04-28T22:10:10.398Z,94658.50
2023-04-28T22:12:38.424Z,94660.25
2023-04-28T22:15:08.938Z,94643.09
2023-04-28T22:17:37.391Z,94660.56
2023-04-28T22:20:06.113Z,94651.50
2023-04-28T22:22:33.987Z,94655.84
2023-04-28T22:25:02.021Z,94661.50
2023-04-28T22:27:30.459Z,94651.13
2023-04-28T22:29:58.842Z,94646.53
2023-04-28T22:32:28.362Z,94659.38
2023-04-28T22:34:56.543Z,94645.38
2023-04-28T22:37:24.399Z,94650.56
2023-04-28T22:39:52.611Z,94651.84
2023-04-28T22:42:20.906Z,94657.13
2023-04-28T22:44:48.768Z,94655.22
2023-04-28T22:47:17.594Z,94651.63
2023-04-28T22:49:47.030Z,94648.06
2023-04-28T22:52:14.884Z,94638.34
2023-04-28T22:54:42.806Z,94641.88
2023-04-28T22:57:10.702Z,94638.94
2023-04-28T22:59:38.642Z,94632.41
2023-04-28T23:02:06.552Z,94629.47
2023-04-28T23:04:34.721Z,94622.66
2023-04-28T23:07:04.115Z,94621.00
2023-04-28T23:09:35.704Z,94619.81
2023-04-28T23:12:04.185Z,94631.59
2023-04-28T23:14:32.666Z,94614.13
2023-04-28T23:17:00.660Z,94621.34
2023-04-28T23:19:28.546Z,94620.50
2023-04-28T23:21:56.477Z,94623.75
2023-04-28T23:24:26.659Z,94610.31
2023-04-28T23:26:54.568Z,94614.34
2023-04-28T23:29:23.914Z,94617.69
2023-04-28T23:31:54.905Z,94613.84
2023-04-28T23:34:23.288Z,94613.94
2023-04-28T23:36:51.725Z,94612.69
2023-04-28T23:39:19.682Z,94609.53
2023-04-28T23:41:48.984Z,94608.28
2023-04-28T23:44:17.153Z,94605.69
2023-04-28T23:46:45.087Z,94599.81
2023-04-28T23:49:13.298Z,94601.56
2023-04-28T23:51:41.256Z,94597.22
2023-04-28T23:54:09.861Z,94601.56
2023-04-28T23:56:37.812Z,94602.25
2023-04-28T23:59:08.378Z,94606.00
